Time;durP1;ratioP1;P1;durP2;ratioP2;P2;SDS_P1;SDS_P2;PMS_P1;PMS_P2;Temp;Humidity;BMP_temperature;BMP_pressure;BME280_temperature;BME280_humidity;BME280_pressure;Samples;Min_cycle;Max_cycle;Signal;HPM_P1;HPM_P2
2022/08/07 00:01:48;;;;;;;330.75;209.13;;;10.80;99.10;;;;;;4991624;28;20162;-75
2022/08/07 00:04:16;;;;;;;331.40;207.95;;;10.70;98.70;;;;;;4990446;28;20198;-75
2022/08/07 00:06:43;;;;;;;323.23;203.02;;;10.70;98.70;;;;;;4991846;28;20062;-76
2022/08/07 00:09:10;;;;;;;325.50;204.45;;;10.70;99.40;;;;;;4985324;28;20051;-75
2022/08/07 00:11:37;;;;;;;321.60;196.57;;;10.60;99.10;;;;;;4972313;28;20099;-75
2022/08/07 00:14:04;;;;;;;321.40;198.10;;;10.60;98.80;;;;;;4972214;28;20055;-75
2022/08/07 00:16:31;;;;;;;333.95;208.95;;;10.70;99.30;;;;;;4987131;28;20051;-74
2022/08/07 00:18:57;;;;;;;328.10;202.10;;;10.60;99.90;;;;;;4986390;28;20066;-75
2022/08/07 00:21:26;;;;;;;318.13;196.90;;;10.60;99.70;;;;;;4971974;28;20095;-75
2022/08/07 00:23:53;;;;;;;320.10;193.95;;;10.60;99.30;;;;;;4986892;28;20158;-75
2022/08/07 00:26:19;;;;;;;320.38;193.93;;;10.60;99.90;;;;;;4986949;28;20057;-75
2022/08/07 00:28:47;;;;;;;317.05;189.77;;;10.60;99.90;;;;;;4986543;28;20624;-74
2022/08/07 00:31:14;;;;;;;314.13;188.88;;;10.40;99.90;;;;;;4970601;28;20085;-74
2022/08/07 00:33:41;;;;;;;315.17;191.63;;;10.40;99.80;;;;;;4986422;28;20083;-74
2022/08/07 00:36:09;;;;;;;386.92;189.73;;;10.40;99.90;;;;;;4970612;28;20140;-74
2022/08/07 00:38:38;;;;;;;320.13;192.70;;;10.30;99.60;;;;;;5003048;28;20054;-74
2022/08/07 00:41:07;;;;;;;317.38;194.40;;;10.30;99.80;;;;;;4969017;28;20058;-75
2022/08/07 00:43:33;;;;;;;322.60;195.00;;;10.30;99.70;;;;;;4986511;28;20139;-74
2022/08/07 00:46:01;;;;;;;315.85;193.93;;;10.30;99.80;;;;;;4986602;28;20055;-74
2022/08/07 00:48:29;;;;;;;350.65;217.43;;;10.30;99.90;;;;;;4986240;28;20051;-74
2022/08/07 00:50:56;;;;;;;334.35;204.57;;;10.30;99.90;;;;;;4970439;28;20146;-75
2022/08/07 00:53:23;;;;;;;356.42;221.77;;;10.20;99.90;;;;;;4971596;28;20059;-74
2022/08/07 00:55:51;;;;;;;327.45;200.00;;;10.20;99.90;;;;;;4986514;28;20134;-75
2022/08/07 00:58:21;;;;;;;327.05;199.85;;;10.20;99.90;;;;;;5002948;28;20047;-75
2022/08/07 01:00:49;;;;;;;312.63;189.60;;;10.20;99.90;;;;;;4971659;28;20053;-74
2022/08/07 01:03:18;;;;;;;316.98;190.73;;;10.20;99.90;;;;;;4970430;28;20051;-74
2022/08/07 01:05:46;;;;;;;313.10;188.20;;;10.20;99.90;;;;;;4986531;28;20047;-74
2022/08/07 01:08:13;;;;;;;328.38;201.43;;;10.10;99.90;;;;;;4985824;28;20135;-74
2022/08/07 01:10:41;;;;;;;330.13;200.57;;;10.20;99.80;;;;;;4987509;28;20541;-74
2022/08/07 01:13:10;;;;;;;321.85;195.48;;;10.10;99.90;;;;;;4993183;28;20051;-74
2022/08/07 01:15:37;;;;;;;319.33;193.80;;;10.10;99.90;;;;;;4992938;28;20055;-74
2022/08/07 01:18:05;;;;;;;315.27;190.05;;;10.10;99.90;;;;;;4992772;28;20576;-74
2022/08/07 01:20:37;;;;;;;314.05;188.93;;;10.10;99.90;;;;;;4994216;28;20073;-75
2022/08/07 01:23:06;;;;;;;324.88;194.23;;;10.10;99.90;;;;;;4993996;28;20162;-75
2022/08/07 01:25:34;;;;;;;314.67;188.35;;;10.10;99.90;;;;;;4976406;28;20054;-75
2022/08/07 01:28:02;;;;;;;315.23;187.57;;;10.10;99.90;;;;;;4994193;28;20047;-75
2022/08/07 01:30:31;;;;;;;315.08;188.35;;;10.10;99.80;;;;;;4976443;28;20054;-74
2022/08/07 01:32:58;;;;;;;310.90;185.63;;;10.10;99.70;;;;;;4976254;28;20065;-74
2022/08/07 01:35:28;;;;;;;305.05;183.10;;;10.00;99.80;;;;;;4992453;28;20090;-74
2022/08/07 01:37:56;;;;;;;315.85;190.55;;;10.10;99.90;;;;;;4976099;28;20054;-74
2022/08/07 01:40:26;;;;;;;324.02;193.48;;;10.10;99.90;;;;;;4992601;28;20054;-75
2022/08/07 01:42:58;;;;;;;316.23;188.85;;;10.10;99.90;;;;;;4992435;28;20054;-74
2022/08/07 01:45:26;;;;;;;301.27;183.88;;;10.10;99.90;;;;;;4975046;28;20053;-74
2022/08/07 01:47:56;;;;;;;296.58;176.05;;;10.10;99.90;;;;;;5008294;28;20046;-74
2022/08/07 01:50:25;;;;;;;296.55;177.07;;;10.20;99.90;;;;;;4992267;28;20129;-75
2022/08/07 01:52:56;;;;;;;334.50;203.38;;;10.20;99.90;;;;;;5008593;28;20055;-75
2022/08/07 01:55:26;;;;;;;323.30;196.15;;;10.30;99.90;;;;;;5008934;28;20074;-74
2022/08/07 01:57:58;;;;;;;358.08;218.75;;;10.30;99.90;;;;;;5008291;28;20140;-74
2022/08/07 02:00:30;;;;;;;361.92;223.02;;;10.30;99.90;;;;;;4991984;28;20047;-74
2022/08/07 02:03:01;;;;;;;344.85;211.48;;;10.30;99.90;;;;;;4992594;28;20055;-74
2022/08/07 02:05:34;;;;;;;355.60;221.60;;;10.40;99.90;;;;;;4992086;28;20050;-74
2022/08/07 02:08:04;;;;;;;347.92;215.95;;;10.40;99.90;;;;;;4991758;28;20049;-74
2022/08/07 02:10:39;;;;;;;352.50;219.55;;;10.40;99.90;;;;;;4991999;28;20134;-75
2022/08/07 02:13:07;;;;;;;352.60;221.63;;;10.40;99.90;;;;;;5008799;28;20062;-74
2022/08/07 02:15:42;;;;;;;339.83;210.77;;;10.50;99.90;;;;;;4991621;28;20623;-74
2022/08/07 02:18:12;;;;;;;351.08;220.40;;;10.60;99.90;;;;;;4991245;28;20053;-74
2022/08/07 02:20:41;;;;;;;378.67;242.27;;;10.60;99.90;;;;;;4975237;28;20042;-75
2022/08/07 02:23:09;;;;;;;354.33;221.32;;;10.60;99.90;;;;;;4991373;28;20138;-75
2022/08/07 02:25:39;;;;;;;357.27;226.27;;;10.60;99.90;;;;;;4991853;28;20553;-75
2022/08/07 02:28:07;;;;;;;356.95;226.80;;;10.60;99.90;;;;;;4991689;28;20126;-75
2022/08/07 02:30:36;;;;;;;352.83;221.88;;;10.50;99.90;;;;;;4991721;28;20047;-75
2022/08/07 02:33:04;;;;;;;360.17;226.80;;;10.50;99.90;;;;;;4993061;28;20505;-75
2022/08/07 02:35:33;;;;;;;376.02;239.88;;;10.50;99.90;;;;;;4992919;28;20806;-74
2022/08/07 02:38:05;;;;;;;354.67;221.30;;;10.50;99.90;;;;;;4975021;28;20086;-74
2022/08/07 02:40:37;;;;;;;345.77;215.23;;;10.40;99.90;;;;;;4974525;28;20050;-75
2022/08/07 02:43:06;;;;;;;347.10;215.60;;;10.40;99.80;;;;;;4990908;28;20129;-74
2022/08/07 02:45:37;;;;;;;357.75;223.98;;;10.40;99.70;;;;;;4975046;28;20047;-74
2022/08/07 02:48:05;;;;;;;367.88;230.50;;;10.40;99.80;;;;;;4973815;28;20043;-75
2022/08/07 02:50:34;;;;;;;359.65;224.00;;;10.40;99.90;;;;;;4989730;28;20142;-74
2022/08/07 02:53:06;;;;;;;337.23;206.98;;;10.30;99.80;;;;;;4981342;28;20134;-74
2022/08/07 02:55:37;;;;;;;328.77;202.20;;;10.30;99.80;;;;;;5032740;22;20612;-75
2022/08/07 02:58:11;;;;;;;336.23;204.70;;;10.30;99.90;;;;;;4988681;28;20071;-74
2022/08/07 03:00:41;;;;;;;345.85;212.98;;;10.30;99.90;;;;;;4972952;28;20532;-75
2022/08/07 03:03:10;;;;;;;355.25;215.57;;;10.20;99.90;;;;;;5006452;28;20710;-74
2022/08/07 03:05:42;;;;;;;329.58;197.07;;;10.20;99.90;;;;;;5007182;28;20046;-74
2022/08/07 03:08:10;;;;;;;324.80;195.02;;;10.20;99.90;;;;;;4990758;28;20055;-74
2022/08/07 03:10:41;;;;;;;326.13;197.55;;;10.20;99.90;;;;;;4990771;28;20051;-74
2022/08/07 03:13:09;;;;;;;322.33;191.02;;;10.10;99.90;;;;;;4974721;28;20457;-74
2022/08/07 03:15:36;;;;;;;330.63;197.88;;;10.10;99.90;;;;;;5006939;28;20065;-74
2022/08/07 03:18:04;;;;;;;328.17;194.30;;;10.00;99.90;;;;;;4973964;28;20057;-74
2022/08/07 03:20:31;;;;;;;337.67;201.15;;;10.00;99.90;;;;;;5006997;28;20054;-74
2022/08/07 03:22:59;;;;;;;338.63;200.43;;;10.00;99.90;;;;;;4990564;28;20051;-74
2022/08/07 03:25:28;;;;;;;346.27;207.15;;;10.00;99.90;;;;;;5002544;28;20058;-74
2022/08/07 03:28:00;;;;;;;341.75;203.32;;;10.00;99.90;;;;;;4954705;28;20055;-74
2022/08/07 03:30:28;;;;;;;339.77;198.65;;;9.90;99.90;;;;;;4955376;28;20063;-74
2022/08/07 03:32:56;;;;;;;338.58;196.65;;;9.90;99.90;;;;;;4986215;28;20062;-74
2022/08/07 03:35:25;;;;;;;350.25;201.73;;;9.80;99.90;;;;;;4970020;28;20581;-75
2022/08/07 03:37:56;;;;;;;335.13;195.00;;;9.80;99.90;;;;;;4954085;28;20103;-74
2022/08/07 03:40:29;;;;;;;334.35;195.73;;;9.70;99.90;;;;;;4970526;28;20062;-74
2022/08/07 03:43:00;;;;;;;339.08;194.68;;;9.70;99.90;;;;;;4970820;28;20059;-74
2022/08/07 03:45:31;;;;;;;345.75;199.57;;;9.80;99.90;;;;;;4970714;28;20062;-74
2022/08/07 03:48:03;;;;;;;339.63;195.98;;;9.70;99.90;;;;;;5003137;28;20626;-75
2022/08/07 03:50:34;;;;;;;346.65;196.85;;;9.70;99.90;;;;;;4986658;28;20070;-74
2022/08/07 03:53:02;;;;;;;353.20;202.13;;;9.60;99.90;;;;;;5002882;28;20043;-75
2022/08/07 03:55:30;;;;;;;339.02;194.98;;;9.60;99.90;;;;;;4953735;28;20103;-74
2022/08/07 03:57:59;;;;;;;373.83;218.32;;;9.60;99.90;;;;;;4973576;28;20551;-75
2022/08/07 04:00:33;;;;;;;362.97;212.00;;;9.60;99.90;;;;;;4954217;28;20113;-75
2022/08/07 04:03:01;;;;;;;351.92;202.60;;;9.50;99.90;;;;;;4953805;28;20338;-74
2022/08/07 04:05:34;;;;;;;348.30;198.80;;;9.50;99.90;;;;;;4970335;28;20567;-74
2022/08/07 04:08:01;;;;;;;349.23;199.50;;;9.50;99.90;;;;;;4953901;28;20110;-75
2022/08/07 04:10:28;;;;;;;340.67;197.80;;;9.50;99.90;;;;;;4970376;28;20071;-74
2022/08/07 04:12:58;;;;;;;346.40;201.65;;;9.50;99.90;;;;;;4970129;28;20082;-75
2022/08/07 04:15:27;;;;;;;347.25;205.07;;;9.50;99.90;;;;;;4969959;28;20047;-74
2022/08/07 04:17:55;;;;;;;334.50;193.40;;;9.40;99.90;;;;;;4969951;28;20043;-74
2022/08/07 04:20:23;;;;;;;341.35;198.82;;;9.40;99.90;;;;;;4953664;28;20051;-74
2022/08/07 04:22:50;;;;;;;355.38;206.05;;;9.40;99.90;;;;;;4969836;28;20062;-74
2022/08/07 04:25:19;;;;;;;345.67;198.82;;;9.40;99.90;;;;;;4985930;28;20134;-74
2022/08/07 04:27:46;;;;;;;346.02;199.75;;;9.30;99.90;;;;;;4969809;28;20079;-74
2022/08/07 04:30:19;;;;;;;347.88;198.10;;;9.40;99.90;;;;;;4972840;28;20078;-74
2022/08/07 04:32:52;;;;;;;325.43;186.07;;;9.40;99.90;;;;;;4989570;28;20130;-75
2022/08/07 04:35:21;;;;;;;326.08;186.20;;;9.40;99.90;;;;;;4989390;28;20051;-74
2022/08/07 04:37:51;;;;;;;334.63;191.30;;;9.40;99.90;;;;;;4989109;28;20130;-74
2022/08/07 04:40:18;;;;;;;339.40;199.73;;;9.40;99.90;;;;;;4989453;28;20073;-74
2022/08/07 04:42:46;;;;;;;333.00;187.98;;;9.50;99.90;;;;;;4973187;28;20046;-74
2022/08/07 04:45:13;;;;;;;325.15;185.52;;;9.50;99.90;;;;;;4990380;28;20046;-75
2022/08/07 04:47:52;;;;;;;348.38;198.82;;;9.50;99.90;;;;;;4976130;28;20561;-75
2022/08/07 04:50:28;;;;;;;335.35;190.50;;;9.50;99.90;;;;;;4993252;28;20059;-75
2022/08/07 04:53:15;;;;;;;335.10;184.43;;;9.50;99.90;;;;;;4976502;28;20055;-75
2022/08/07 04:55:50;;;;;;;330.02;182.70;;;9.60;99.90;;;;;;4976254;28;20558;-74
2022/08/07 04:58:22;;;;;;;329.60;177.75;;;9.60;99.90;;;;;;4992287;28;20106;-74
2022/08/07 05:00:54;;;;;;;343.00;190.43;;;9.60;99.90;;;;;;4992497;28;20043;-74
2022/08/07 05:03:29;;;;;;;328.63;181.43;;;9.60;99.90;;;;;;5003016;28;20067;-74
2022/08/07 05:06:04;;;;;;;323.13;180.23;;;9.60;99.90;;;;;;4957546;28;20047;-74
2022/08/07 05:08:42;;;;;;;331.15;187.20;;;9.70;99.90;;;;;;4989477;28;20127;-74
2022/08/07 05:11:12;;;;;;;328.60;184.73;;;9.70;99.90;;;;;;4973522;28;20082;-75
2022/08/07 05:14:00;;;;;;;327.77;185.57;;;9.80;99.90;;;;;;4973364;28;20051;-75
2022/08/07 05:16:31;;;;;;;335.25;193.68;;;9.90;99.90;;;;;;4973603;28;20150;-75
2022/08/07 05:19:04;;;;;;;331.38;191.85;;;9.90;99.90;;;;;;4989239;28;20102;-75
2022/08/07 05:21:35;;;;;;;333.48;194.60;;;10.00;99.90;;;;;;4973589;28;20065;-75
2022/08/07 05:24:04;;;;;;;333.33;195.02;;;10.10;99.90;;;;;;4989739;28;20062;-75
2022/08/07 05:26:33;;;;;;;332.13;199.20;;;10.20;99.90;;;;;;4957511;28;20098;-75
2022/08/07 05:29:09;;;;;;;341.17;205.25;;;10.30;99.90;;;;;;4973060;28;20627;-75
2022/08/07 05:31:39;;;;;;;327.33;195.90;;;10.30;99.90;;;;;;4972781;28;20043;-75
2022/08/07 05:34:13;;;;;;;327.35;196.18;;;10.50;99.90;;;;;;4973149;28;20141;-74
2022/08/07 05:36:44;;;;;;;325.25;197.90;;;10.60;99.90;;;;;;4973213;28;20053;-75
2022/08/07 05:39:22;;;;;;;376.33;234.13;;;10.70;99.90;;;;;;4988403;28;20750;-75
2022/08/07 05:41:53;;;;;;;355.85;219.13;;;10.80;99.90;;;;;;4989177;28;20055;-75
2022/08/07 05:44:21;;;;;;;339.90;207.45;;;10.90;99.90;;;;;;4989313;28;20138;-75
2022/08/07 05:46:50;;;;;;;328.65;198.10;;;11.10;99.90;;;;;;4973184;28;20087;-75
2022/08/07 05:49:23;;;;;;;325.63;198.23;;;11.20;99.90;;;;;;4956848;28;20166;-75
2022/08/07 05:51:52;;;;;;;328.55;202.05;;;11.30;99.90;;;;;;4956992;28;20047;-75
2022/08/07 05:54:21;;;;;;;335.70;210.32;;;11.40;99.90;;;;;;5005247;28;20577;-75
2022/08/07 05:56:49;;;;;;;341.52;217.00;;;11.50;99.90;;;;;;4955479;28;20051;-75
2022/08/07 05:59:19;;;;;;;326.27;205.23;;;11.70;99.90;;;;;;4972805;28;20051;-75
2022/08/07 06:01:50;;;;;;;324.10;202.75;;;11.80;99.90;;;;;;4956801;28;20055;-75
2022/08/07 06:04:21;;;;;;;312.70;196.70;;;12.00;99.90;;;;;;4973009;28;20540;-75
2022/08/07 06:06:49;;;;;;;310.70;198.65;;;12.10;99.90;;;;;;5005411;28;20057;-75
2022/08/07 06:09:18;;;;;;;329.10;212.73;;;12.30;99.90;;;;;;4956344;28;20102;-75
2022/08/07 06:11:48;;;;;;;313.60;205.75;;;12.40;99.90;;;;;;4964212;28;20532;-75
2022/08/07 06:14:18;;;;;;;310.45;205.30;;;12.60;99.90;;;;;;4976153;28;20102;-76
2022/08/07 06:16:48;;;;;;;336.02;227.40;;;12.70;99.90;;;;;;4975668;28;20126;-76
2022/08/07 06:19:18;;;;;;;360.23;248.43;;;12.80;99.90;;;;;;5008176;28;20058;-75
2022/08/07 06:21:46;;;;;;;355.92;247.10;;;13.00;99.90;;;;;;5008042;28;20552;-76
2022/08/07 06:24:15;;;;;;;371.98;259.35;;;13.30;99.90;;;;;;4975910;28;20134;-75
2022/08/07 06:26:42;;;;;;;359.85;256.75;;;13.50;99.90;;;;;;4991791;28;20053;-76
2022/08/07 06:29:09;;;;;;;353.63;252.02;;;13.70;99.90;;;;;;4990967;28;20051;-76
2022/08/07 06:31:36;;;;;;;365.75;262.88;;;13.80;99.90;;;;;;4990991;28;20109;-76
2022/08/07 06:34:04;;;;;;;338.25;242.45;;;14.00;99.90;;;;;;4991512;28;20142;-75
2022/08/07 06:36:31;;;;;;;324.30;232.80;;;14.20;99.90;;;;;;4972991;28;20058;-76
2022/08/07 06:38:59;;;;;;;331.77;245.50;;;14.40;99.90;;;;;;4994182;28;20055;-75
2022/08/07 06:41:34;;;;;;;326.40;239.65;;;14.50;99.40;;;;;;4997951;28;20051;-75
2022/08/07 06:44:03;;;;;;;311.10;223.95;;;14.90;98.30;;;;;;4962281;28;20093;-75
2022/08/07 06:46:33;;;;;;;319.48;228.93;;;15.20;97.90;;;;;;4985534;28;20062;-76
2022/08/07 06:49:00;;;;;;;308.75;223.35;;;15.30;97.60;;;;;;4989752;28;20050;-75
2022/08/07 06:51:31;;;;;;;323.48;241.13;;;15.40;98.10;;;;;;4990367;28;20047;-75
2022/08/07 06:54:02;;;;;;;318.23;240.50;;;15.50;98.30;;;;;;4973199;28;20059;-75
2022/08/07 06:56:39;;;;;;;310.13;233.52;;;15.50;97.60;;;;;;4988476;28;20098;-75
2022/08/07 06:59:16;;;;;;;304.10;230.07;;;15.60;97.30;;;;;;4971777;28;20043;-75
2022/08/07 07:01:49;;;;;;;307.58;236.15;;;15.80;97.20;;;;;;4989342;28;20505;-75
2022/08/07 07:04:17;;;;;;;290.25;223.38;;;15.90;96.70;;;;;;5006230;28;20493;-75
2022/08/07 07:06:44;;;;;;;294.20;226.15;;;16.00;96.50;;;;;;4965129;28;20085;-75
2022/08/07 07:09:22;;;;;;;293.42;226.75;;;16.10;96.00;;;;;;4990904;28;20137;-75
2022/08/07 07:12:17;;;;;;;305.10;238.85;;;16.20;96.00;;;;;;4992635;28;20533;-75
2022/08/07 07:14:49;;;;;;;301.77;235.68;;;16.30;96.30;;;;;;4989981;28;20138;-75
2022/08/07 07:17:31;;;;;;;318.42;250.82;;;16.40;95.60;;;;;;5003930;28;20052;-76
2022/08/07 07:20:00;;;;;;;293.65;230.07;;;16.50;96.20;;;;;;5001396;28;20114;-76
2022/08/07 07:22:28;;;;;;;289.05;231.90;;;16.50;95.60;;;;;;4970879;28;20051;-76
2022/08/07 07:24:56;;;;;;;307.63;249.75;;;16.70;94.70;;;;;;5003731;28;20162;-75
2022/08/07 07:27:28;;;;;;;291.02;232.63;;;16.80;94.70;;;;;;4972371;28;20502;-76
2022/08/07 07:30:00;;;;;;;303.27;246.20;;;16.90;94.70;;;;;;4972254;28;20055;-76
2022/08/07 07:32:30;;;;;;;306.70;250.75;;;17.00;93.90;;;;;;4954906;28;21048;-76
2022/08/07 07:35:00;;;;;;;296.17;238.57;;;17.10;94.10;;;;;;4972501;28;20067;-76
2022/08/07 07:37:30;;;;;;;298.40;245.75;;;17.20;92.80;;;;;;4971433;28;20055;-76
2022/08/07 07:40:01;;;;;;;294.92;245.20;;;17.30;93.90;;;;;;4971349;28;20117;-76
2022/08/07 07:42:31;;;;;;;291.52;241.73;;;17.40;93.40;;;;;;5003299;28;20458;-76
2022/08/07 07:45:01;;;;;;;281.27;236.00;;;17.40;93.60;;;;;;5003485;28;20147;-76
2022/08/07 07:47:29;;;;;;;284.00;237.60;;;17.50;92.10;;;;;;4971971;28;20065;-76
2022/08/07 07:49:58;;;;;;;294.08;249.50;;;17.60;92.10;;;;;;5002965;28;20150;-76
2022/08/07 07:52:26;;;;;;;299.42;257.17;;;17.60;91.70;;;;;;4972774;28;20059;-76
2022/08/07 07:54:55;;;;;;;305.48;257.77;;;17.60;90.20;;;;;;4989254;28;20062;-76
2022/08/07 07:57:24;;;;;;;305.40;257.58;;;17.70;90.30;;;;;;4991026;28;20055;-76
2022/08/07 07:59:54;;;;;;;300.00;253.05;;;17.80;85.30;;;;;;5003656;28;20143;-76
2022/08/07 08:02:23;;;;;;;294.45;246.57;;;17.90;86.20;;;;;;4985556;28;20050;-76
2022/08/07 08:04:51;;;;;;;292.55;245.57;;;17.90;85.00;;;;;;5001678;28;20054;-76
2022/08/07 08:07:19;;;;;;;297.23;250.88;;;18.00;88.60;;;;;;4986572;28;20055;-76
2022/08/07 08:09:49;;;;;;;299.88;251.82;;;18.00;86.90;;;;;;4984157;28;20795;-76
2022/08/07 08:12:17;;;;;;;297.55;252.20;;;18.10;87.00;;;;;;4986227;28;20058;-76
2022/08/07 08:14:45;;;;;;;294.02;250.75;;;18.20;88.70;;;;;;4987876;28;20087;-76
2022/08/07 08:17:14;;;;;;;293.60;251.00;;;18.30;84.80;;;;;;4988186;28;20142;-76
2022/08/07 08:19:42;;;;;;;309.85;265.65;;;18.40;85.20;;;;;;4988297;28;20051;-76
2022/08/07 08:27:43;;;;;;;336.38;296.25;;;18.40;85.20;;;;;;4987238;28;20081;-76
2022/08/07 08:30:12;;;;;;;322.92;286.80;;;18.60;85.00;;;;;;5003496;28;20129;-76
2022/08/07 08:32:43;;;;;;;311.63;272.48;;;18.70;82.30;;;;;;4904534;28;20057;-76
2022/08/07 08:35:14;;;;;;;306.40;267.95;;;18.70;85.20;;;;;;4989904;28;20424;-76
2022/08/07 08:37:43;;;;;;;301.95;260.90;;;18.80;80.80;;;;;;4988905;28;20130;-76
2022/08/07 08:40:15;;;;;;;294.70;257.45;;;18.80;82.40;;;;;;4988596;28;20090;-76
2022/08/07 08:42:49;;;;;;;299.77;262.77;;;18.90;83.50;;;;;;4990347;28;20057;-76
2022/08/07 08:45:22;;;;;;;298.40;259.38;;;18.90;82.50;;;;;;4990814;28;20057;-76
2022/08/07 08:48:01;;;;;;;291.05;255.25;;;19.00;80.30;;;;;;4986878;28;20055;-76
2022/08/07 08:50:32;;;;;;;294.00;254.23;;;19.10;80.70;;;;;;4989309;28;20051;-76
2022/08/07 08:53:06;;;;;;;297.65;261.00;;;19.10;82.20;;;;;;4990747;28;20057;-76
2022/08/07 08:55:37;;;;;;;298.23;262.00;;;19.20;79.60;;;;;;5002488;28;20137;-76
2022/08/07 08:58:10;;;;;;;290.10;257.77;;;19.20;80.80;;;;;;4990145;28;20402;-76
2022/08/07 09:00:44;;;;;;;346.27;309.33;;;19.40;81.90;;;;;;4983055;28;20043;-76
2022/08/07 09:03:22;;;;;;;367.98;328.65;;;19.50;81.30;;;;;;4988279;28;20133;-76
2022/08/07 09:05:55;;;;;;;398.35;356.73;;;19.70;80.80;;;;;;4986644;28;20051;-76
2022/08/07 09:08:31;;;;;;;374.05;334.23;;;19.80;80.30;;;;;;5005582;28;20173;-76
2022/08/07 09:11:07;;;;;;;338.80;302.00;;;19.90;80.10;;;;;;4986732;28;20145;-76
2022/08/07 09:13:39;;;;;;;337.55;300.38;;;19.80;77.80;;;;;;4985762;28;20080;-75
2022/08/07 09:16:15;;;;;;;324.83;288.48;;;19.80;78.50;;;;;;4990427;28;20063;-76
2022/08/07 09:19:15;;;;;;;421.70;377.75;;;19.80;80.70;;;;;;5005106;28;20047;-76
2022/08/07 09:21:52;;;;;;;359.83;320.23;;;19.80;77.10;;;;;;4988859;28;20089;-76
2022/08/07 09:24:31;;;;;;;343.65;305.73;;;19.70;78.70;;;;;;5004466;28;20090;-76
2022/08/07 09:27:08;;;;;;;323.17;286.83;;;19.80;82.20;;;;;;4990055;28;20135;-76
2022/08/07 09:29:46;;;;;;;328.38;292.20;;;19.90;77.10;;;;;;4990474;28;20078;-76
2022/08/07 09:32:25;;;;;;;310.27;276.30;;;20.00;78.00;;;;;;4990262;28;20114;-76
2022/08/07 09:35:04;;;;;;;294.98;258.73;;;19.80;77.90;;;;;;4993934;28;20639;-76
2022/08/07 09:37:38;;;;;;;298.42;260.92;;;19.70;78.70;;;;;;4993819;28;20059;-76
2022/08/07 09:40:13;;;;;;;289.27;252.60;;;19.80;77.60;;;;;;4992661;28;20521;-76
2022/08/07 09:42:54;;;;;;;289.83;252.98;;;19.90;76.10;;;;;;5008345;28;20047;-76
2022/08/07 09:45:35;;;;;;;295.70;258.85;;;20.00;81.60;;;;;;5007772;28;20529;-75
2022/08/07 09:48:12;;;;;;;285.10;247.23;;;20.30;78.30;;;;;;4991800;28;20090;-75
2022/08/07 09:51:03;;;;;;;278.52;241.75;;;20.20;78.50;;;;;;4995795;28;20129;-76
2022/08/07 09:53:37;;;;;;;294.75;259.60;;;20.40;76.60;;;;;;4990315;28;20050;-75
2022/08/07 09:56:14;;;;;;;;;;;20.40;75.40;;;;;;4991971;28;20808;-75
2022/08/07 09:58:57;;;;;;;339.40;302.25;;;20.40;75.70;;;;;;4989520;28;19926;-74
2022/08/07 10:01:40;;;;;;;424.13;380.63;;;20.40;75.70;;;;;;5008302;28;20133;-75
2022/08/07 10:04:27;;;;;;;;;;;20.30;74.10;;;;;;4991716;28;20589;-75
2022/08/07 10:07:21;;;;;;;398.98;356.85;;;20.40;76.60;;;;;;4989349;28;21001;-75
2022/08/07 10:10:30;;;;;;;382.77;342.75;;;20.40;74.30;;;;;;4992946;28;20062;-74
2022/08/07 10:13:26;;;;;;;440.38;396.63;;;20.40;73.00;;;;;;5005251;28;20558;-75
2022/08/07 10:16:04;;;;;;;525.25;477.75;;;20.50;75.40;;;;;;4990225;28;20162;-75
2022/08/07 10:18:53;;;;;;;466.88;422.02;;;20.60;73.80;;;;;;4991567;28;20062;-75
2022/08/07 10:21:32;;;;;;;488.95;442.67;;;20.70;73.60;;;;;;4992239;28;20101;-75
2022/08/07 10:24:32;;;;;;;456.35;411.45;;;20.70;74.00;;;;;;4992741;28;20054;-76
2022/08/07 10:27:16;;;;;;;494.73;447.67;;;20.50;70.30;;;;;;4992054;28;20082;-74
2022/08/07 10:29:59;;;;;;;429.83;386.30;;;20.40;74.40;;;;;;4990232;28;20047;-75
2022/08/07 10:32:54;;;;;;;420.27;377.42;;;20.60;73.30;;;;;;4991311;28;20121;-74
2022/08/07 10:35:29;;;;;;;395.17;354.40;;;20.70;73.30;;;;;;4990086;28;20059;-74
2022/08/07 10:38:11;;;;;;;475.17;429.38;;;20.60;72.10;;;;;;4989172;28;20061;-74
2022/08/07 10:40:44;;;;;;;450.00;405.05;;;20.60;68.50;;;;;;5005414;28;20607;-74
2022/08/07 10:43:17;;;;;;;468.65;422.80;;;20.60;72.00;;;;;;4988652;28;20046;-74
2022/08/07 10:45:48;;;;;;;470.98;425.60;;;20.70;70.70;;;;;;4991333;28;20082;-75
2022/08/07 10:48:24;;;;;;;469.23;424.52;;;20.90;69.80;;;;;;5006557;28;20061;-75
2022/08/07 10:50:55;;;;;;;531.88;484.60;;;21.00;69.20;;;;;;4987743;28;20110;-75
2022/08/07 10:53:27;;;;;;;520.53;473.92;;;21.20;70.00;;;;;;4991800;28;20181;-74
2022/08/07 10:56:03;;;;;;;520.55;474.20;;;21.20;69.30;;;;;;4991292;28;20142;-75
2022/08/07 10:58:53;;;;;;;574.47;525.83;;;21.30;69.30;;;;;;4991425;28;20059;-75
2022/08/07 11:01:31;;;;;;;482.88;437.40;;;21.30;68.60;;;;;;5006659;28;20100;-75
2022/08/07 11:04:06;;;;;;;501.25;455.10;;;21.40;68.50;;;;;;4991764;28;20138;-75
2022/08/07 11:06:44;;;;;;;514.10;467.38;;;21.40;67.50;;;;;;4990717;28;20527;-74
2022/08/07 11:09:17;;;;;;;486.02;440.88;;;21.50;69.20;;;;;;4991559;28;20101;-75
2022/08/07 11:11:51;;;;;;;486.88;441.35;;;21.60;66.10;;;;;;4991204;28;20054;-75
2022/08/07 11:14:25;;;;;;;576.00;527.05;;;21.70;63.30;;;;;;4988199;28;20054;-75
2022/08/07 11:16:58;;;;;;;492.77;447.15;;;21.60;65.80;;;;;;4984089;28;20046;-76
2022/08/07 11:19:30;;;;;;;499.25;453.25;;;21.50;64.50;;;;;;4987005;28;20146;-76
2022/08/07 11:22:06;;;;;;;496.38;451.02;;;21.60;66.10;;;;;;4987435;28;20058;-77
2022/08/07 11:24:40;;;;;;;532.75;486.02;;;21.90;66.50;;;;;;4986613;28;20062;-76
2022/08/07 11:27:12;;;;;;;494.08;448.98;;;22.10;64.40;;;;;;4988047;28;20047;-77
2022/08/07 11:29:49;;;;;;;531.28;484.73;;;22.30;67.20;;;;;;4990020;28;20110;-75
2022/08/07 11:32:18;;;;;;;565.33;517.38;;;22.30;63.20;;;;;;4990230;28;20538;-74
2022/08/07 11:34:48;;;;;;;555.58;508.33;;;22.40;61.80;;;;;;4990151;28;20142;-74
2022/08/07 11:37:26;;;;;;;517.67;471.77;;;22.40;63.10;;;;;;5003786;28;20058;-74
2022/08/07 11:40:07;;;;;;;496.13;451.45;;;22.20;62.30;;;;;;4984373;28;20126;-74
2022/08/07 11:42:45;;;;;;;496.67;451.90;;;22.20;59.50;;;;;;4990351;28;20174;-74
2022/08/07 11:45:21;;;;;;;496.65;452.13;;;22.10;59.20;;;;;;5005520;28;20928;-74
2022/08/07 11:48:04;;;;;;;489.35;445.20;;;22.20;62.10;;;;;;5002857;28;20051;-74
2022/08/07 11:50:37;;;;;;;;;;;22.40;61.10;;;;;;4989603;28;20118;-74
2022/08/07 11:53:16;;;;;;;418.05;376.67;;;22.40;57.90;;;;;;5004483;28;19926;-74
2022/08/07 11:56:10;;;;;;;444.48;402.13;;;22.20;58.00;;;;;;5002763;28;20090;-74
2022/08/07 11:58:49;;;;;;;503.40;457.75;;;22.10;58.10;;;;;;4989053;28;20488;-74
2022/08/07 12:01:31;;;;;;;448.35;405.88;;;22.10;58.80;;;;;;4989440;28;20051;-74
2022/08/07 12:04:13;;;;;;;505.52;460.17;;;22.30;59.30;;;;;;4989915;28;20059;-74
2022/08/07 12:06:48;;;;;;;461.83;418.83;;;22.50;56.30;;;;;;4991155;28;20061;-74
2022/08/07 12:09:22;;;;;;;460.60;418.02;;;22.50;58.60;;;;;;5006087;28;20078;-74
2022/08/07 12:11:56;;;;;;;444.80;403.52;;;22.60;58.20;;;;;;5004147;28;20533;-74
2022/08/07 12:14:29;;;;;;;489.08;445.45;;;22.70;58.10;;;;;;4988408;28;20050;-74
2022/08/07 12:17:01;;;;;;;473.08;430.05;;;22.80;56.20;;;;;;5005486;28;20143;-74
2022/08/07 12:19:49;;;;;;;491.52;448.15;;;22.80;60.70;;;;;;5004365;28;20047;-74
2022/08/07 12:22:23;;;;;;;530.55;485.13;;;23.10;54.70;;;;;;4988966;28;20086;-74
2022/08/07 12:27:49;;;;;;;441.67;400.52;;;23.00;53.50;;;;;;4990269;28;20150;-74
2022/08/07 12:30:19;;;;;;;476.98;434.02;;;22.90;52.90;;;;;;4989145;28;20055;-74
2022/08/07 12:32:56;;;;;;;475.50;432.95;;;23.00;54.00;;;;;;5005505;28;20062;-74
2022/08/07 12:35:25;;;;;;;472.02;430.42;;;23.10;53.20;;;;;;4985129;28;20054;-74
2022/08/07 12:37:54;;;;;;;471.40;430.05;;;23.30;52.50;;;;;;5003080;28;20051;-74
2022/08/07 12:40:31;;;;;;;482.35;440.33;;;23.40;52.30;;;;;;4988708;28;20055;-74
2022/08/07 12:43:04;;;;;;;467.58;426.50;;;23.50;52.90;;;;;;4988898;28;20051;-74
2022/08/07 12:45:39;;;;;;;470.10;429.08;;;23.60;58.40;;;;;;4988714;28;20055;-74